Time;durP1;ratioP1;P1;durP2;ratioP2;P2;SDS_P1;SDS_P2;PMS_P1;PMS_P2;Temp;Humidity;BMP_temperature;BMP_pressure;BME280_temperature;BME280_humidity;BME280_pressure;Samples;Min_cycle;Max_cycle;Signal;HPM_P1;HPM_P2
2022/07/31 00:00:32;;;;;;;5.35;2.80;;;17.40;99.90;;;;;;5049404;28;20385;-74
2022/07/31 00:02:58;;;;;;;6.55;2.88;;;17.40;99.90;;;;;;5051152;28;20056;-74
2022/07/31 00:05:25;;;;;;;4.82;2.88;;;17.40;99.90;;;;;;5052059;28;20045;-74
2022/07/31 00:07:53;;;;;;;5.63;2.70;;;17.30;99.90;;;;;;5051110;28;20041;-74
2022/07/31 00:10:19;;;;;;;4.47;2.80;;;17.40;99.90;;;;;;5051172;28;20044;-74
2022/07/31 00:12:45;;;;;;;7.20;3.47;;;17.40;99.90;;;;;;5052469;28;20033;-74
2022/07/31 00:15:13;;;;;;;6.43;3.30;;;17.40;99.90;;;;;;5052215;28;20512;-74
2022/07/31 00:17:40;;;;;;;7.05;3.47;;;17.40;99.90;;;;;;5050899;28;20044;-74
2022/07/31 00:20:08;;;;;;;4.13;3.20;;;17.50;99.90;;;;;;5050913;28;20056;-74
2022/07/31 00:22:34;;;;;;;5.38;3.08;;;17.50;99.90;;;;;;5050831;28;20493;-74
2022/07/31 00:25:00;;;;;;;5.65;3.35;;;17.40;99.90;;;;;;5053112;28;20071;-74
2022/07/31 00:27:26;;;;;;;7.03;3.78;;;17.50;99.90;;;;;;5054462;28;20068;-74
2022/07/31 00:29:52;;;;;;;5.30;3.30;;;17.50;99.90;;;;;;5035807;28;20053;-74
2022/07/31 00:32:18;;;;;;;6.57;3.60;;;17.50;99.90;;;;;;5055668;28;20044;-74
2022/07/31 00:34:45;;;;;;;5.28;3.47;;;17.50;99.90;;;;;;5053984;28;20047;-73
2022/07/31 00:37:11;;;;;;;5.63;3.63;;;17.50;99.90;;;;;;5054230;28;20396;-74
2022/07/31 00:39:37;;;;;;;5.45;3.65;;;17.50;99.90;;;;;;5055840;28;20041;-74
2022/07/31 00:42:04;;;;;;;6.15;3.63;;;17.50;99.90;;;;;;5054500;28;20060;-74
2022/07/31 00:44:30;;;;;;;4.50;3.20;;;17.60;99.90;;;;;;5054335;28;20049;-75
2022/07/31 00:46:56;;;;;;;6.30;3.40;;;17.60;99.90;;;;;;5054245;28;20052;-74
2022/07/31 00:49:22;;;;;;;5.53;3.20;;;17.50;99.90;;;;;;5054063;28;20059;-74
2022/07/31 00:51:48;;;;;;;7.03;3.78;;;17.50;99.90;;;;;;5054067;28;20631;-74
2022/07/31 00:54:13;;;;;;;5.53;4.15;;;17.50;99.90;;;;;;5037429;28;20040;-74
2022/07/31 00:56:39;;;;;;;10.05;3.55;;;17.50;99.90;;;;;;5055135;28;20090;-74
2022/07/31 00:59:05;;;;;;;9.50;4.78;;;17.50;99.90;;;;;;5054163;28;20088;-74
2022/07/31 01:01:31;;;;;;;8.20;4.10;;;17.50;99.90;;;;;;5035050;28;20041;-74
2022/07/31 01:03:57;;;;;;;6.35;4.30;;;17.50;99.90;;;;;;5053518;28;20067;-74
2022/07/31 01:06:23;;;;;;;8.57;4.05;;;17.50;99.90;;;;;;5053596;28;20113;-74
2022/07/31 01:08:49;;;;;;;6.80;4.15;;;17.50;99.90;;;;;;5037212;28;20040;-74
2022/07/31 01:11:20;;;;;;;7.88;3.70;;;17.50;99.90;;;;;;5053741;28;20048;-74
2022/07/31 01:14:01;;;;;;;5.30;4.10;;;17.50;99.90;;;;;;5055031;28;20059;-74
2022/07/31 01:16:33;;;;;;;6.80;4.00;;;17.50;99.90;;;;;;5037304;28;20425;-74
2022/07/31 01:19:03;;;;;;;5.07;4.05;;;17.50;99.90;;;;;;5053932;28;20041;-74
2022/07/31 01:21:38;;;;;;;7.95;4.07;;;17.50;99.90;;;;;;5053513;28;20044;-74
2022/07/31 01:24:35;;;;;;;5.88;3.90;;;17.50;99.90;;;;;;5052767;28;20047;-74
2022/07/31 01:27:11;;;;;;;5.82;4.28;;;17.50;99.90;;;;;;5036754;28;20128;-74
2022/07/31 01:29:45;;;;;;;6.80;4.88;;;17.50;99.90;;;;;;5051374;28;20110;-74
2022/07/31 01:32:26;;;;;;;6.47;3.90;;;17.50;99.90;;;;;;5036836;28;20048;-74
2022/07/31 01:34:57;;;;;;;7.18;4.72;;;17.50;99.90;;;;;;5053059;28;20105;-74
2022/07/31 01:37:31;;;;;;;7.95;4.25;;;17.50;99.90;;;;;;5053338;28;20397;-74
2022/07/31 01:40:15;;;;;;;8.32;4.43;;;17.50;99.90;;;;;;5054614;28;20060;-74
2022/07/31 01:42:55;;;;;;;6.97;4.75;;;17.50;99.90;;;;;;5054519;28;20485;-74
2022/07/31 01:45:24;;;;;;;8.07;4.38;;;17.50;99.90;;;;;;5053113;28;20040;-74
2022/07/31 01:47:53;;;;;;;6.70;3.97;;;17.50;99.90;;;;;;5053228;28;20041;-74
2022/07/31 01:50:21;;;;;;;9.03;4.20;;;17.50;99.90;;;;;;5053105;28;20079;-74
2022/07/31 01:52:48;;;;;;;5.72;4.32;;;17.50;99.90;;;;;;5053250;28;20041;-74
2022/07/31 01:55:15;;;;;;;8.23;4.70;;;17.50;99.90;;;;;;5052889;28;20045;-73
2022/07/31 01:57:42;;;;;;;5.70;4.22;;;17.50;99.90;;;;;;5054250;28;20083;-74
2022/07/31 02:00:09;;;;;;;7.07;4.18;;;17.50;99.90;;;;;;5034021;28;20087;-73
2022/07/31 02:02:37;;;;;;;9.18;4.57;;;17.50;99.90;;;;;;5052618;28;20551;-74
2022/07/31 02:05:06;;;;;;;6.82;4.65;;;17.40;99.90;;;;;;5053718;28;20159;-74
2022/07/31 02:07:41;;;;;;;5.53;4.13;;;17.40;99.90;;;;;;5052646;28;20045;-74
2022/07/31 02:10:13;;;;;;;6.25;4.07;;;17.40;99.90;;;;;;5036262;28;20040;-74
2022/07/31 02:12:40;;;;;;;5.32;4.63;;;17.50;99.90;;;;;;5053797;28;20118;-73
2022/07/31 02:15:10;;;;;;;7.25;5.03;;;17.40;99.90;;;;;;5052438;28;20478;-73
2022/07/31 02:17:38;;;;;;;8.57;4.95;;;17.40;99.90;;;;;;5052423;28;20090;-73
2022/07/31 02:20:06;;;;;;;7.90;5.00;;;17.40;99.90;;;;;;5053622;28;20084;-73
2022/07/31 02:22:33;;;;;;;8.35;5.75;;;17.40;99.90;;;;;;5053794;28;20036;-73
2022/07/31 02:25:00;;;;;;;5.95;4.60;;;17.40;99.90;;;;;;5035990;28;20389;-74
2022/07/31 02:27:27;;;;;;;6.68;4.80;;;17.40;99.90;;;;;;5052440;28;20076;-73
2022/07/31 02:30:01;;;;;;;7.50;4.93;;;17.50;99.90;;;;;;5051497;28;20105;-74
2022/07/31 02:32:28;;;;;;;7.50;5.43;;;17.50;99.90;;;;;;5052201;28;20469;-74
2022/07/31 02:34:55;;;;;;;7.65;5.88;;;17.50;99.90;;;;;;5052104;28;20037;-73
2022/07/31 02:37:23;;;;;;;7.60;5.43;;;17.60;99.90;;;;;;5052072;28;20052;-74
2022/07/31 02:39:51;;;;;;;8.57;5.65;;;17.60;99.90;;;;;;5035692;28;20045;-74
2022/07/31 02:42:19;;;;;;;7.93;6.25;;;17.60;99.90;;;;;;5051906;28;20505;-73
2022/07/31 02:44:46;;;;;;;9.20;5.65;;;17.60;99.90;;;;;;5051929;28;20098;-74
2022/07/31 02:47:12;;;;;;;6.30;5.70;;;17.60;99.90;;;;;;5052595;28;20041;-74
2022/07/31 02:49:39;;;;;;;7.35;5.60;;;17.60;99.90;;;;;;5035553;28;20041;-74
2022/07/31 02:52:05;;;;;;;8.80;5.70;;;17.60;99.90;;;;;;5035214;28;20128;-75
2022/07/31 02:54:38;;;;;;;8.60;5.78;;;17.60;99.90;;;;;;5053075;28;20065;-74
2022/07/31 02:57:04;;;;;;;6.25;5.38;;;17.60;99.90;;;;;;5053232;28;20056;-74
2022/07/31 02:59:30;;;;;;;8.40;6.13;;;17.60;99.90;;;;;;5051029;28;20079;-73
2022/07/31 03:01:57;;;;;;;7.80;5.93;;;17.60;99.90;;;;;;5051623;28;20492;-73
2022/07/31 03:04:23;;;;;;;7.03;5.57;;;17.60;99.90;;;;;;5052662;28;20448;-73
2022/07/31 03:06:50;;;;;;;8.98;6.18;;;17.60;99.90;;;;;;5052743;28;20488;-73
2022/07/31 03:09:16;;;;;;;8.02;5.53;;;17.50;99.90;;;;;;5052752;28;20040;-73
2022/07/31 03:11:42;;;;;;;9.13;6.43;;;17.50;99.90;;;;;;5034896;28;20127;-74
2022/07/31 03:14:10;;;;;;;10.25;6.25;;;17.50;99.90;;;;;;5051545;28;20041;-74
2022/07/31 03:16:38;;;;;;;7.97;6.10;;;17.50;99.90;;;;;;5034829;28;20047;-75
2022/07/31 03:19:05;;;;;;;6.82;6.13;;;17.50;99.90;;;;;;5051833;28;20040;-75
2022/07/31 03:21:31;;;;;;;7.65;5.80;;;17.40;99.90;;;;;;5051717;28;20044;-75
2022/07/31 03:24:02;;;;;;;7.38;6.45;;;17.40;99.90;;;;;;5051595;28;20553;-74
2022/07/31 03:26:28;;;;;;;9.38;6.20;;;17.40;99.90;;;;;;5051295;28;20116;-75
2022/07/31 03:28:54;;;;;;;6.80;5.93;;;17.40;99.90;;;;;;5051800;28;20087;-75
2022/07/31 03:31:21;;;;;;;6.60;5.97;;;17.40;99.90;;;;;;5049557;28;20420;-74
2022/07/31 03:33:46;;;;;;;8.50;5.90;;;17.40;99.90;;;;;;5035269;28;20060;-76
2022/07/31 03:36:12;;;;;;;9.15;6.85;;;17.40;99.90;;;;;;5051582;28;20045;-76
2022/07/31 03:38:38;;;;;;;7.53;6.30;;;17.40;99.90;;;;;;5051537;28;20127;-75
2022/07/31 03:41:04;;;;;;;9.18;6.50;;;17.30;99.90;;;;;;5051345;28;20052;-76
2022/07/31 03:43:32;;;;;;;9.88;6.70;;;17.30;99.90;;;;;;5051501;28;20038;-75
2022/07/31 03:45:59;;;;;;;10.02;6.88;;;17.30;99.90;;;;;;5051253;28;20049;-74
2022/07/31 03:48:26;;;;;;;9.60;6.53;;;17.30;99.90;;;;;;5052654;28;20033;-75
2022/07/31 03:50:52;;;;;;;10.80;7.22;;;17.30;99.90;;;;;;5034746;28;20037;-75
2022/07/31 03:53:19;;;;;;;9.68;6.80;;;17.30;99.90;;;;;;5052574;28;20071;-75
2022/07/31 03:55:45;;;;;;;9.23;6.57;;;17.30;99.90;;;;;;5052753;28;20049;-75
2022/07/31 03:58:11;;;;;;;8.23;7.30;;;17.30;99.90;;;;;;5035863;28;20485;-75
2022/07/31 04:00:37;;;;;;;7.93;6.32;;;17.30;99.90;;;;;;5053510;28;20045;-75
2022/07/31 04:03:06;;;;;;;10.00;7.22;;;17.30;99.90;;;;;;5055206;28;20048;-75
2022/07/31 04:05:32;;;;;;;9.30;6.97;;;17.30;99.90;;;;;;5038236;28;20055;-75
2022/07/31 04:07:58;;;;;;;8.13;6.78;;;17.30;99.90;;;;;;5055265;28;20452;-75
2022/07/31 04:10:25;;;;;;;9.50;6.18;;;17.30;99.90;;;;;;5055387;28;20036;-74
2022/07/31 04:12:50;;;;;;;9.20;7.05;;;17.30;99.90;;;;;;5055348;28;20064;-76
2022/07/31 04:15:16;;;;;;;10.50;6.88;;;17.30;99.90;;;;;;5056125;28;20073;-74
2022/07/31 04:17:43;;;;;;;9.23;7.00;;;17.40;99.90;;;;;;5056147;28;20045;-75
2022/07/31 04:20:10;;;;;;;8.50;6.80;;;17.40;99.90;;;;;;5054781;28;20047;-74
2022/07/31 04:22:37;;;;;;;8.95;6.65;;;17.40;99.90;;;;;;5037900;28;20052;-74
2022/07/31 04:25:04;;;;;;;9.48;6.90;;;17.40;99.90;;;;;;5038101;28;20079;-73
2022/07/31 04:27:30;;;;;;;8.88;6.88;;;17.40;99.90;;;;;;5054567;28;20037;-75
2022/07/31 04:29:57;;;;;;;7.55;6.45;;;17.40;99.90;;;;;;5052694;28;20049;-74
2022/07/31 04:32:23;;;;;;;8.68;6.75;;;17.40;99.90;;;;;;5037982;28;20123;-73
2022/07/31 04:34:49;;;;;;;10.45;7.07;;;17.40;99.90;;;;;;5054649;28;20047;-74
2022/07/31 04:37:15;;;;;;;7.95;7.18;;;17.40;99.90;;;;;;5054701;28;20044;-74
2022/07/31 04:39:42;;;;;;;9.73;6.60;;;17.40;99.90;;;;;;5055717;28;20137;-73
2022/07/31 04:42:08;;;;;;;10.07;7.95;;;17.40;99.90;;;;;;5054223;28;20045;-73
2022/07/31 04:44:34;;;;;;;9.18;7.15;;;17.40;99.90;;;;;;5053945;28;20060;-74
2022/07/31 04:47:02;;;;;;;10.05;7.00;;;17.50;99.90;;;;;;5036577;28;20040;-74
2022/07/31 04:49:29;;;;;;;8.90;7.10;;;17.50;99.90;;;;;;5054299;28;20077;-74
2022/07/31 04:51:56;;;;;;;11.48;7.03;;;17.50;99.90;;;;;;5053258;28;20040;-74
2022/07/31 04:54:23;;;;;;;8.82;6.80;;;17.50;99.90;;;;;;5054493;28;20099;-74
2022/07/31 04:56:48;;;;;;;10.23;7.05;;;17.60;99.90;;;;;;5054244;28;20041;-74
2022/07/31 04:59:16;;;;;;;8.38;6.75;;;17.60;99.90;;;;;;5052850;28;20052;-74
2022/07/31 05:01:43;;;;;;;11.18;6.97;;;17.60;99.90;;;;;;5051455;28;20171;-74
2022/07/31 05:04:09;;;;;;;9.60;7.13;;;17.70;99.90;;;;;;5053644;28;20528;-74
2022/07/31 05:06:38;;;;;;;9.60;6.55;;;17.70;99.90;;;;;;5055284;28;20139;-74
2022/07/31 05:09:09;;;;;;;10.82;6.80;;;17.70;99.90;;;;;;5053857;28;20405;-75
2022/07/31 05:11:36;;;;;;;11.43;7.00;;;17.70;99.90;;;;;;5053540;28;20083;-75
2022/07/31 05:14:04;;;;;;;12.00;7.22;;;17.80;99.90;;;;;;5036983;28;20070;-74
2022/07/31 05:16:31;;;;;;;9.07;6.63;;;17.80;99.90;;;;;;5054061;28;20041;-74
2022/07/31 05:18:58;;;;;;;8.93;6.80;;;17.80;99.90;;;;;;5053513;28;20133;-74
2022/07/31 05:21:25;;;;;;;7.22;6.53;;;17.80;99.90;;;;;;5055072;28;20057;-76
2022/07/31 05:23:52;;;;;;;8.88;6.57;;;17.70;99.90;;;;;;5053428;28;20489;-74
2022/07/31 05:26:19;;;;;;;7.95;6.45;;;17.70;99.90;;;;;;5052413;28;20052;-75
2022/07/31 05:28:46;;;;;;;7.85;6.47;;;17.80;99.90;;;;;;5068934;28;20075;-75
2022/07/31 05:31:12;;;;;;;7.68;6.55;;;17.80;99.90;;;;;;5071220;28;20037;-75
2022/07/31 05:33:38;;;;;;;9.38;7.13;;;17.80;99.90;;;;;;5072550;28;20039;-74
2022/07/31 05:36:05;;;;;;;11.18;7.60;;;17.90;99.90;;;;;;5066229;28;20127;-74
2022/07/31 05:38:31;;;;;;;15.18;7.78;;;17.90;99.90;;;;;;5073205;28;20037;-74
2022/07/31 05:40:56;;;;;;;8.95;6.85;;;18.00;99.90;;;;;;5072119;28;20116;-74
2022/07/31 05:43:22;;;;;;;9.70;6.85;;;18.00;99.90;;;;;;5071932;28;20037;-75
2022/07/31 05:45:48;;;;;;;8.95;6.22;;;18.00;99.90;;;;;;5073154;28;20037;-76
2022/07/31 05:48:17;;;;;;;9.68;6.60;;;18.00;99.90;;;;;;5055419;28;20047;-74
2022/07/31 05:50:44;;;;;;;7.63;6.85;;;18.10;99.90;;;;;;5055284;28;20094;-75
2022/07/31 05:53:16;;;;;;;9.57;6.57;;;18.10;99.90;;;;;;5055052;28;20033;-74
2022/07/31 05:55:44;;;;;;;11.90;7.90;;;18.20;99.90;;;;;;5072102;28;20049;-74
2022/07/31 05:58:10;;;;;;;11.20;6.70;;;18.20;99.90;;;;;;5072717;28;20078;-74
2022/07/31 06:00:37;;;;;;;10.63;7.30;;;18.30;99.90;;;;;;5069760;28;20045;-73
2022/07/31 06:03:03;;;;;;;9.80;7.13;;;18.30;99.90;;;;;;5072651;28;20048;-74
2022/07/31 06:05:29;;;;;;;11.68;7.50;;;18.40;99.90;;;;;;5054750;28;20055;-74
2022/07/31 06:07:56;;;;;;;9.13;7.78;;;18.50;99.90;;;;;;5072922;28;20171;-73
2022/07/31 06:10:22;;;;;;;9.10;6.85;;;18.60;99.90;;;;;;5054854;28;20040;-75
2022/07/31 06:12:48;;;;;;;11.43;7.95;;;18.70;99.90;;;;;;5072532;28;20446;-73
2022/07/31 06:15:14;;;;;;;9.40;7.65;;;18.80;99.90;;;;;;5056631;28;20141;-74
2022/07/31 06:17:41;;;;;;;11.02;7.57;;;18.90;99.90;;;;;;5071385;28;20040;-74
2022/07/31 06:20:09;;;;;;;9.32;8.25;;;18.90;99.90;;;;;;5071164;28;20488;-74
2022/07/31 06:22:35;;;;;;;9.52;7.78;;;19.00;99.90;;;;;;5071546;28;20036;-72
2022/07/31 06:25:02;;;;;;;10.60;8.60;;;19.00;99.90;;;;;;5072213;28;20040;-72
2022/07/31 06:27:27;;;;;;;11.27;8.25;;;19.00;99.90;;;;;;5054435;28;20036;-75
2022/07/31 06:29:55;;;;;;;10.63;8.30;;;19.10;99.90;;;;;;5070100;28;20037;-73
2022/07/31 06:32:21;;;;;;;9.75;7.97;;;19.10;99.90;;;;;;5076516;28;20108;-70
2022/07/31 06:34:47;;;;;;;9.45;7.20;;;19.10;99.90;;;;;;5075264;28;20072;-70
2022/07/31 06:37:12;;;;;;;12.20;8.63;;;19.10;99.90;;;;;;5075138;28;20040;-72
2022/07/31 06:39:38;;;;;;;12.07;9.05;;;19.10;99.90;;;;;;5058452;28;20036;-74
2022/07/31 06:42:04;;;;;;;10.82;8.43;;;19.20;99.90;;;;;;5075523;28;20041;-74
2022/07/31 06:44:32;;;;;;;10.77;9.07;;;19.20;99.90;;;;;;5076009;28;20490;-74
2022/07/31 06:46:58;;;;;;;10.85;8.40;;;19.20;99.90;;;;;;5058212;28;20059;-75
2022/07/31 06:49:25;;;;;;;11.55;8.35;;;19.30;99.90;;;;;;5074914;28;20070;-75
2022/07/31 06:51:51;;;;;;;12.40;8.23;;;19.30;99.90;;;;;;5075456;28;20036;-73
2022/07/31 06:54:17;;;;;;;12.70;8.35;;;19.30;99.90;;;;;;5075509;28;20028;-72
2022/07/31 06:56:43;;;;;;;11.90;9.20;;;19.30;99.90;;;;;;5076148;28;20041;-73
2022/07/31 06:59:09;;;;;;;14.90;8.88;;;19.30;99.90;;;;;;5058172;28;20110;-73
2022/07/31 07:01:35;;;;;;;9.65;8.43;;;19.40;99.90;;;;;;5070840;28;20599;-74
2022/07/31 07:04:01;;;;;;;10.80;8.75;;;19.40;99.90;;;;;;5072942;28;20509;-73
2022/07/31 07:06:27;;;;;;;10.30;9.02;;;19.40;99.90;;;;;;5077046;28;20075;-74
2022/07/31 07:08:53;;;;;;;11.82;8.38;;;19.40;99.90;;;;;;5077346;28;20045;-74
2022/07/31 07:11:20;;;;;;;13.60;8.35;;;19.50;99.90;;;;;;5076052;28;20044;-75
2022/07/31 07:13:46;;;;;;;11.07;8.95;;;19.60;99.90;;;;;;5077209;28;20071;-75
2022/07/31 07:16:12;;;;;;;11.30;9.05;;;19.60;99.90;;;;;;5077555;28;20040;-75
2022/07/31 07:18:38;;;;;;;13.00;8.85;;;19.70;99.90;;;;;;5076783;28;20036;-74
2022/07/31 07:21:04;;;;;;;13.40;8.95;;;19.70;99.90;;;;;;5076071;28;20385;-74
2022/07/31 07:23:31;;;;;;;13.20;9.02;;;19.80;99.90;;;;;;5075589;28;20047;-73
2022/07/31 07:25:57;;;;;;;13.98;8.65;;;19.90;99.90;;;;;;5058497;28;20132;-71
2022/07/31 07:28:22;;;;;;;13.00;8.68;;;19.90;99.90;;;;;;5062898;28;20068;-71
2022/07/31 07:30:48;;;;;;;11.57;9.35;;;19.90;99.90;;;;;;5072713;28;20410;-72
2022/07/31 07:33:14;;;;;;;13.60;9.05;;;19.90;99.90;;;;;;5078465;28;20037;-71
2022/07/31 07:35:41;;;;;;;14.70;9.43;;;19.90;99.90;;;;;;5079952;28;20142;-75
2022/07/31 07:38:07;;;;;;;11.73;8.70;;;20.00;99.90;;;;;;5079276;28;20044;-73
2022/07/31 07:40:33;;;;;;;12.48;8.95;;;20.00;99.90;;;;;;5079391;28;20128;-73
2022/07/31 07:42:59;;;;;;;12.02;8.93;;;20.00;99.90;;;;;;5063031;28;20037;-72
2022/07/31 07:45:24;;;;;;;13.60;8.18;;;20.10;99.90;;;;;;5081031;28;20466;-73
2022/07/31 07:47:50;;;;;;;16.65;9.05;;;20.10;99.90;;;;;;5079133;28;20041;-72
2022/07/31 07:50:16;;;;;;;12.93;8.38;;;20.20;99.90;;;;;;5078633;28;20043;-72
2022/07/31 07:52:42;;;;;;;12.20;9.15;;;20.20;99.90;;;;;;5079546;28;20036;-73
2022/07/31 07:55:11;;;;;;;15.95;10.13;;;20.30;99.90;;;;;;5078275;28;20041;-73
2022/07/31 07:57:37;;;;;;;13.02;8.90;;;20.40;99.90;;;;;;5078412;28;20044;-72
2022/07/31 08:00:06;;;;;;;11.15;8.93;;;20.50;99.90;;;;;;5075448;28;20136;-73
2022/07/31 08:02:32;;;;;;;15.05;9.50;;;20.50;99.90;;;;;;5078972;28;20111;-72
2022/07/31 08:04:59;;;;;;;13.50;9.75;;;20.50;99.90;;;;;;5077798;28;20055;-73
2022/07/31 08:07:34;;;;;;;13.93;9.95;;;20.50;99.90;;;;;;5077933;28;20051;-74
2022/07/31 08:10:00;;;;;;;13.13;9.05;;;20.50;99.90;;;;;;5076537;28;20040;-72
2022/07/31 08:12:26;;;;;;;14.85;10.70;;;20.40;99.90;;;;;;5077450;28;20042;-74
2022/07/31 08:14:52;;;;;;;13.30;9.10;;;20.30;99.90;;;;;;5078074;28;20037;-74
2022/07/31 08:17:18;;;;;;;15.13;10.30;;;20.30;99.90;;;;;;5078171;28;20332;-75
2022/07/31 08:19:44;;;;;;;14.18;9.85;;;20.20;99.90;;;;;;5077347;28;20501;-74
2022/07/31 08:22:11;;;;;;;14.45;9.55;;;20.20;99.90;;;;;;5078839;28;20068;-74
2022/07/31 08:24:37;;;;;;;15.05;11.10;;;20.10;99.90;;;;;;5077694;28;20041;-74
2022/07/31 08:29:48;;;;;;;15.55;10.23;;;20.00;99.90;;;;;;5056403;28;20049;-74
2022/07/31 08:32:14;;;;;;;16.40;11.45;;;19.90;99.90;;;;;;5057273;28;20061;-71
2022/07/31 08:34:40;;;;;;;14.70;10.50;;;19.90;99.90;;;;;;5056694;28;20032;-71
2022/07/31 08:37:06;;;;;;;17.98;10.52;;;19.90;99.90;;;;;;5057164;28;20091;-72
2022/07/31 08:39:35;;;;;;;15.40;11.80;;;19.90;99.90;;;;;;5056967;28;20072;-72
2022/07/31 08:42:09;;;;;;;16.27;11.27;;;19.80;99.90;;;;;;5056882;28;20437;-72
2022/07/31 08:44:40;;;;;;;16.20;11.52;;;19.80;99.90;;;;;;5057324;28;20041;-75
2022/07/31 08:47:11;;;;;;;14.85;11.95;;;19.70;99.90;;;;;;5056969;28;20064;-73
2022/07/31 08:49:48;;;;;;;18.25;12.80;;;19.60;99.90;;;;;;5057044;28;20041;-73
2022/07/31 08:52:24;;;;;;;16.00;12.40;;;19.60;99.90;;;;;;5038466;28;20050;-72
2022/07/31 08:54:51;;;;;;;17.70;13.00;;;19.50;99.90;;;;;;5055847;28;20037;-72
2022/07/31 08:57:18;;;;;;;15.10;13.40;;;19.40;99.90;;;;;;5037812;28;20044;-70
2022/07/31 08:59:44;;;;;;;20.63;13.65;;;19.40;99.90;;;;;;5052192;28;20488;-69
2022/07/31 09:02:12;;;;;;;18.92;15.07;;;19.30;99.90;;;;;;5053517;28;20076;-67
2022/07/31 09:04:38;;;;;;;18.80;14.10;;;19.30;99.90;;;;;;5053124;28;20158;-67
2022/07/31 09:07:08;;;;;;;18.20;13.90;;;19.30;99.90;;;;;;5070052;28;20128;-68
2022/07/31 09:09:34;;;;;;;18.20;14.50;;;19.30;99.90;;;;;;5072908;28;20044;-69
2022/07/31 09:12:00;;;;;;;19.25;14.65;;;19.30;99.90;;;;;;5073072;28;20465;-67
2022/07/31 09:14:33;;;;;;;19.70;14.15;;;19.40;99.90;;;;;;5074017;28;20120;-69
2022/07/31 09:17:02;;;;;;;23.27;15.43;;;19.40;99.90;;;;;;5073070;28;20101;-70
2022/07/31 09:19:39;;;;;;;19.42;14.10;;;19.50;99.90;;;;;;5072758;28;20048;-66
2022/07/31 09:22:06;;;;;;;19.88;15.68;;;19.40;99.90;;;;;;5073949;28;20036;-67
2022/07/31 09:24:34;;;;;;;22.23;15.43;;;19.40;99.90;;;;;;5072950;28;20036;-68
2022/07/31 09:27:04;;;;;;;25.88;16.27;;;19.40;99.90;;;;;;5073683;28;20028;-66
2022/07/31 09:29:48;;;;;;;19.70;15.68;;;19.40;99.90;;;;;;5073508;28;20040;-67
2022/07/31 09:32:16;;;;;;;26.75;17.65;;;19.30;99.90;;;;;;5073203;28;20465;-67
2022/07/31 09:34:44;;;;;;;22.15;16.55;;;19.30;99.90;;;;;;5072529;28;20485;-66
2022/07/31 09:37:24;;;;;;;20.95;15.95;;;19.30;99.90;;;;;;5073486;28;20120;-66
2022/07/31 09:39:51;;;;;;;22.25;16.00;;;19.20;99.90;;;;;;5055712;28;20040;-66
2022/07/31 09:42:17;;;;;;;24.20;16.40;;;19.10;99.90;;;;;;5073665;28;20044;-66
2022/07/31 09:44:46;;;;;;;21.65;17.27;;;19.10;99.90;;;;;;5073808;28;20087;-65
2022/07/31 09:47:30;;;;;;;24.63;16.83;;;19.10;99.90;;;;;;5073175;28;20037;-65
2022/07/31 09:49:59;;;;;;;23.52;17.40;;;19.10;99.90;;;;;;5072498;28;20033;-68
2022/07/31 09:52:27;;;;;;;24.95;16.60;;;19.20;99.90;;;;;;5074080;28;20093;-68
2022/07/31 09:55:02;;;;;;;27.58;17.77;;;19.10;99.90;;;;;;5056469;28;20127;-66
2022/07/31 09:57:28;;;;;;;25.10;17.65;;;19.20;99.90;;;;;;5073931;28;20036;-67
2022/07/31 09:59:55;;;;;;;23.92;17.02;;;19.10;99.90;;;;;;5071086;28;20098;-71
2022/07/31 10:02:24;;;;;;;27.10;17.67;;;19.10;99.90;;;;;;5073116;28;20472;-66
2022/07/31 10:04:52;;;;;;;27.17;18.45;;;19.10;99.90;;;;;;5073816;28;20488;-66
2022/07/31 10:07:19;;;;;;;26.38;16.42;;;19.10;99.90;;;;;;5072857;28;20092;-68
2022/07/31 10:09:46;;;;;;;26.85;19.08;;;19.20;99.90;;;;;;5073130;28;20043;-68
2022/07/31 10:12:14;;;;;;;25.30;18.88;;;19.20;99.90;;;;;;5074057;28;20496;-72
2022/07/31 10:14:43;;;;;;;25.55;18.10;;;19.20;99.90;;;;;;5073070;28;20044;-67
2022/07/31 10:17:10;;;;;;;29.70;19.90;;;19.20;99.90;;;;;;5072881;28;20072;-69
2022/07/31 10:19:40;;;;;;;31.80;20.85;;;19.20;99.90;;;;;;5072883;28;20106;-67
2022/07/31 10:22:11;;;;;;;28.67;19.48;;;19.20;99.90;;;;;;5072974;28;20120;-69
2022/07/31 10:24:44;;;;;;;25.85;20.05;;;19.20;99.90;;;;;;5072990;28;20076;-68
2022/07/31 10:27:11;;;;;;;23.17;18.67;;;19.20;99.90;;;;;;5071149;28;20040;-68
2022/07/31 10:29:39;;;;;;;31.33;22.48;;;19.20;99.90;;;;;;5050960;28;20041;-67
2022/07/31 10:32:06;;;;;;;32.95;21.35;;;19.20;99.90;;;;;;5054031;28;20116;-68
2022/07/31 10:34:34;;;;;;;32.35;21.58;;;19.20;99.90;;;;;;5053654;28;20041;-68
2022/07/31 10:37:28;;;;;;;32.15;22.67;;;19.30;99.90;;;;;;5052386;28;20049;-67
2022/07/31 10:40:14;;;;;;;30.73;21.10;;;19.30;99.90;;;;;;5049457;28;20057;-70
2022/07/31 10:42:47;;;;;;;34.97;23.27;;;19.30;99.90;;;;;;5036972;28;20052;-72
2022/07/31 10:45:15;;;;;;;34.28;25.23;;;19.20;99.90;;;;;;5053239;28;20072;-70
2022/07/31 10:47:56;;;;;;;42.35;25.15;;;19.20;99.90;;;;;;5053881;28;20041;-72
2022/07/31 10:50:24;;;;;;;41.35;27.20;;;19.20;99.90;;;;;;5052604;28;20124;-66
2022/07/31 10:52:50;;;;;;;48.17;29.60;;;19.20;99.90;;;;;;5052615;28;20080;-67
2022/07/31 10:55:21;;;;;;;44.30;28.55;;;19.10;99.90;;;;;;5052197;28;20135;-65
2022/07/31 10:57:47;;;;;;;51.45;30.40;;;19.10;99.90;;;;;;5052301;28;20578;-65
2022/07/31 11:00:19;;;;;;;51.42;31.02;;;19.10;99.90;;;;;;5050536;28;20481;-66
2022/07/31 11:02:46;;;;;;;54.72;32.00;;;19.00;99.90;;;;;;5035342;28;20472;-66
2022/07/31 11:05:21;;;;;;;56.63;31.70;;;19.00;99.90;;;;;;5052481;28;20057;-67
2022/07/31 11:08:04;;;;;;;53.03;31.30;;;19.00;99.90;;;;;;5034493;28;20127;-68
2022/07/31 11:10:32;;;;;;;49.25;30.92;;;18.90;99.90;;;;;;5051831;28;20083;-67
2022/07/31 11:13:07;;;;;;;62.45;34.97;;;18.90;99.90;;;;;;5034986;28;20466;-68
2022/07/31 11:15:36;;;;;;;50.75;31.63;;;18.90;99.90;;;;;;5035047;28;20045;-66
2022/07/31 11:18:21;;;;;;;54.37;32.37;;;18.90;99.90;;;;;;5053228;28;20056;-66
2022/07/31 11:20:58;;;;;;;55.63;32.83;;;19.00;99.90;;;;;;5051795;28;20421;-68
2022/07/31 11:23:28;;;;;;;45.65;30.80;;;18.90;99.90;;;;;;5034859;28;20047;-69
2022/07/31 11:25:59;;;;;;;57.97;31.13;;;18.90;99.90;;;;;;5034742;28;20045;-66
2022/07/31 11:28:26;;;;;;;65.88;36.65;;;18.90;99.90;;;;;;5066730;28;20435;-66
2022/07/31 11:30:54;;;;;;;63.40;35.53;;;18.90;99.90;;;;;;5069570;28;20111;-68
2022/07/31 11:33:48;;;;;;;57.30;33.53;;;18.90;99.90;;;;;;5071754;28;20036;-67
2022/07/31 11:36:19;;;;;;;46.67;30.10;;;18.90;99.90;;;;;;5053758;28;20060;-66
2022/07/31 11:38:49;;;;;;;58.55;35.80;;;18.90;99.90;;;;;;5071169;28;20119;-65
2022/07/31 11:41:16;;;;;;;58.42;33.38;;;18.90;99.90;;;;;;5054824;28;20055;-65
2022/07/31 11:43:51;;;;;;;66.38;37.03;;;18.90;99.90;;;;;;5065697;28;20048;-65
2022/07/31 11:46:28;;;;;;;49.95;31.67;;;19.00;99.90;;;;;;5053979;28;20045;-69
2022/07/31 11:48:55;;;;;;;48.10;30.55;;;19.10;99.90;;;;;;5052521;28;20091;-66
2022/07/31 11:51:21;;;;;;;61.30;36.58;;;19.10;99.90;;;;;;5068953;28;20036;-68
2022/07/31 11:53:50;;;;;;;54.47;31.00;;;19.10;99.90;;;;;;5071713;28;20045;-69
2022/07/31 11:56:20;;;;;;;54.20;32.72;;;19.10;99.90;;;;;;5068885;28;20053;-66
2022/07/31 11:58:51;;;;;;;42.50;27.08;;;19.10;99.90;;;;;;5051177;28;20044;-65
2022/07/31 12:01:18;;;;;;;49.72;29.85;;;19.10;99.90;;;;;;5052500;28;20044;-65
2022/07/31 12:03:45;;;;;;;48.78;30.33;;;19.10;99.90;;;;;;5070723;28;20693;-65
2022/07/31 12:06:16;;;;;;;53.78;30.77;;;19.10;99.90;;;;;;5072184;28;20473;-66
2022/07/31 12:08:42;;;;;;;51.28;29.08;;;19.20;99.90;;;;;;5071916;28;20112;-65
2022/07/31 12:11:10;;;;;;;52.40;28.80;;;19.20;99.90;;;;;;5071236;28;20036;-65
2022/07/31 12:13:38;;;;;;;52.10;29.00;;;19.20;99.90;;;;;;5070798;28;20052;-65
2022/07/31 12:16:11;;;;;;;63.15;32.20;;;19.20;99.90;;;;;;5071833;28;20412;-65
2022/07/31 12:18:58;;;;;;;70.85;33.42;;;19.20;99.90;;;;;;5054213;28;20040;-63
2022/07/31 12:21:35;;;;;;;57.25;29.27;;;19.20;99.90;;;;;;5058180;28;20048;-64
2022/07/31 12:24:13;;;;;;;45.38;26.20;;;19.20;99.90;;;;;;5075717;28;20154;-63
2022/07/31 12:26:48;;;;;;;58.60;28.27;;;19.20;99.90;;;;;;5074560;28;20037;-63
2022/07/31 12:29:14;;;;;;;34.55;21.23;;;19.20;99.90;;;;;;5054481;28;20045;-63
2022/07/31 12:31:47;;;;;;;38.72;20.98;;;19.20;99.90;;;;;;5053836;28;20037;-64
2022/07/31 12:34:37;;;;;;;30.38;17.67;;;19.30;99.90;;;;;;5054202;28;20048;-64
2022/07/31 12:37:11;;;;;;;;;;;19.30;99.90;;;;;;5055150;28;20128;-64
2022/07/31 12:39:57;;;;;;;25.10;14.75;;;19.40;99.90;;;;;;5055497;28;19916;-65
2022/07/31 12:42:27;;;;;;;21.75;13.80;;;19.50;99.90;;;;;;5055291;28;20057;-65
2022/07/31 12:44:58;;;;;;;22.08;14.65;;;19.60;99.90;;;;;;5055537;28;20041;-65
2022/07/31 12:47:25;;;;;;;26.67;15.48;;;19.70;99.90;;;;;;5054050;28;20041;-66